Time;durP1;ratioP1;P1;durP2;ratioP2;P2;SDS_P1;SDS_P2;PMS_P1;PMS_P2;Temp;Humidity;BMP_temperature;BMP_pressure;BME280_temperature;BME280_humidity;BME280_pressure;Samples;Min_cycle;Max_cycle;Signal;HPM_P1;HPM_P2
2023/03/22 00:00:53;;;;;;;4.87;1.83;;;;;;;;;;5043276;28;20226;-28
2023/03/22 00:03:20;;;;;;;3.70;1.70;;;;;;;;;;5040711;28;20210;-29
2023/03/22 00:05:47;;;;;;;3.30;1.63;;;;;;;;;;5049430;28;20202;-31
2023/03/22 00:08:14;;;;;;;3.73;2.00;;;;;;;;;;5044929;28;20234;-30
2023/03/22 00:10:43;;;;;;;3.13;1.90;;;;;;;;;;5035722;28;20207;-29
2023/03/22 00:13:10;;;;;;;4.83;2.07;;;;;;;;;;5052192;28;20237;-27
2023/03/22 00:15:38;;;;;;;2.57;1.90;;;;;;;;;;5048535;28;20206;-27
2023/03/22 00:18:05;;;;;;;2.83;1.60;;;;;;;;;;5046669;28;20280;-27
2023/03/22 00:20:36;;;;;;;5.73;2.07;;;;;;;;;;5049952;28;20225;-30
2023/03/22 00:23:03;;;;;;;6.27;1.90;;;;;;;;;;5032224;28;20818;-29
2023/03/22 00:25:30;;;;;;;5.33;2.10;;;;;;;;;;5037404;28;20205;-28
2023/03/22 00:27:58;;;;;;;3.30;2.20;;;;;;;;;;5032382;28;20227;-29
2023/03/22 00:30:25;;;;;;;4.37;2.30;;;;;;;;;;5034605;28;20207;-29
2023/03/22 00:32:52;;;;;;;2.63;2.10;;;;;;;;;;5034488;28;20207;-27
2023/03/22 00:35:20;;;;;;;5.23;2.17;;;;;;;;;;5048653;28;20490;-27
2023/03/22 00:37:50;;;;;;;3.40;2.20;;;;;;;;;;5045810;28;20254;-29
2023/03/22 00:40:17;;;;;;;3.27;1.80;;;;;;;;;;5047852;28;20218;-27
2023/03/22 00:42:44;;;;;;;2.73;2.50;;;;;;;;;;5040890;28;20205;-27
2023/03/22 00:45:13;;;;;;;2.40;2.20;;;;;;;;;;5038088;28;20210;-28
2023/03/22 00:47:40;;;;;;;2.63;2.33;;;;;;;;;;5048758;28;20229;-28
2023/03/22 00:50:08;;;;;;;3.83;2.23;;;;;;;;;;5051844;28;20201;-29
2023/03/22 00:52:35;;;;;;;3.53;1.83;;;;;;;;;;5051578;28;20206;-29
2023/03/22 00:55:02;;;;;;;2.30;2.00;;;;;;;;;;5036629;28;20202;-26
2023/03/22 00:57:29;;;;;;;3.03;2.20;;;;;;;;;;5031906;28;20234;-26
2023/03/22 00:59:57;;;;;;;4.00;2.40;;;;;;;;;;5031993;28;20226;-27
2023/03/22 01:02:28;;;;;;;2.93;2.20;;;;;;;;;;5043303;28;20211;-28
2023/03/22 01:04:56;;;;;;;4.10;2.00;;;;;;;;;;5051877;28;20202;-28
2023/03/22 01:07:24;;;;;;;6.37;2.40;;;;;;;;;;5047919;28;20234;-31
2023/03/22 01:09:51;;;;;;;5.87;2.60;;;;;;;;;;5041294;28;20210;-28
2023/03/22 01:12:18;;;;;;;2.90;2.40;;;;;;;;;;5040074;28;20210;-27
2023/03/22 01:14:45;;;;;;;3.93;2.53;;;;;;;;;;5030076;28;20207;-26
2023/03/22 01:17:13;;;;;;;2.43;2.20;;;;;;;;;;5038534;28;20360;-28
2023/03/22 01:19:41;;;;;;;3.67;2.40;;;;;;;;;;5051132;28;20198;-27
2023/03/22 01:22:08;;;;;;;3.67;2.20;;;;;;;;;;5049116;28;20212;-28
2023/03/22 01:24:36;;;;;;;3.97;2.50;;;;;;;;;;5043201;28;20201;-27
2023/03/22 01:27:03;;;;;;;2.90;2.60;;;;;;;;;;5045653;28;20237;-26
2023/03/22 01:29:31;;;;;;;2.43;2.03;;;;;;;;;;5047137;28;20214;-26
2023/03/22 01:31:58;;;;;;;3.73;2.70;;;;;;;;;;5046053;28;20212;-28
2023/03/22 01:34:25;;;;;;;4.63;2.30;;;;;;;;;;5043971;28;20209;-26
2023/03/22 01:36:54;;;;;;;6.23;2.27;;;;;;;;;;5052292;28;20245;-26
2023/03/22 01:39:21;;;;;;;3.00;2.10;;;;;;;;;;5048742;28;20209;-27
2023/03/22 01:41:48;;;;;;;2.83;2.40;;;;;;;;;;5044223;28;20234;-26
2023/03/22 01:44:17;;;;;;;2.50;2.30;;;;;;;;;;5052174;28;20202;-28
2023/03/22 01:46:45;;;;;;;3.43;2.30;;;;;;;;;;5047381;28;20233;-28
2023/03/22 01:49:14;;;;;;;3.77;2.03;;;;;;;;;;5038305;28;20198;-27
2023/03/22 01:51:42;;;;;;;3.67;2.23;;;;;;;;;;5047456;28;20234;-29
2023/03/22 01:54:13;;;;;;;2.57;2.27;;;;;;;;;;5042301;28;20226;-30
2023/03/22 01:56:42;;;;;;;2.93;2.47;;;;;;;;;;5039095;28;20227;-26
2023/03/22 01:59:11;;;;;;;2.83;2.53;;;;;;;;;;5028602;28;20305;-29
2023/03/22 02:01:38;;;;;;;2.73;2.40;;;;;;;;;;5037569;28;20221;-29
2023/03/22 02:06:36;;;;;;;3.63;2.30;;;;;;;;;;4990553;28;20642;-38
2023/03/22 02:09:04;;;;;;;3.47;2.50;;;;;;;;;;4992282;28;20227;-38
2023/03/22 02:11:34;;;;;;;3.70;2.17;;;;;;;;;;4981703;28;20693;-39
2023/03/22 02:14:24;;;;;;;3.33;2.33;;;;;;;;;;4988087;28;20745;-42
2023/03/22 02:16:58;;;;;;;3.40;2.37;;;;;;;;;;4984103;28;20220;-40
2023/03/22 02:19:41;;;;;;;3.07;2.80;;;;;;;;;;4990741;28;20211;-37
2023/03/22 02:22:20;;;;;;;5.77;2.20;;;;;;;;;;4975934;28;20783;-36
2023/03/22 02:25:03;;;;;;;2.73;2.50;;;;;;;;;;4981940;28;20212;-39
2023/03/22 02:27:46;;;;;;;2.73;2.43;;;;;;;;;;4988361;28;20710;-42
2023/03/22 02:30:26;;;;;;;2.33;2.13;;;;;;;;;;4984631;28;20218;-36
2023/03/22 02:33:02;;;;;;;2.60;2.40;;;;;;;;;;4987992;28;20900;-36
2023/03/22 02:35:50;;;;;;;2.97;2.33;;;;;;;;;;4990805;28;20234;-33
2023/03/22 02:38:41;;;;;;;2.70;2.47;;;;;;;;;;4982536;28;20235;-36
2023/03/22 02:41:12;;;;;;;6.37;2.30;;;;;;;;;;4980915;28;20353;-40
2023/03/22 02:43:45;;;;;;;3.90;2.40;;;;;;;;;;4989554;28;20207;-40
2023/03/22 02:46:14;;;;;;;4.17;2.60;;;;;;;;;;4983929;28;20675;-39
2023/03/22 02:48:45;;;;;;;9.33;2.90;;;;;;;;;;4989694;28;20661;-40
2023/03/22 02:51:15;;;;;;;4.27;2.50;;;;;;;;;;4991210;28;20208;-40
2023/03/22 02:53:45;;;;;;;4.03;2.20;;;;;;;;;;4982006;28;20208;-36
2023/03/22 02:56:17;;;;;;;3.80;2.23;;;;;;;;;;4991067;28;20231;-39
2023/03/22 02:58:45;;;;;;;2.60;2.40;;;;;;;;;;4989106;28;20801;-37
2023/03/22 03:01:16;;;;;;;2.80;2.57;;;;;;;;;;4981871;28;20421;-36
2023/03/22 03:03:46;;;;;;;2.77;2.57;;;;;;;;;;4990265;28;20208;-41
2023/03/22 03:06:16;;;;;;;2.93;2.20;;;;;;;;;;4991218;28;20325;-41
2023/03/22 03:08:45;;;;;;;3.90;2.37;;;;;;;;;;4985817;28;20212;-36
2023/03/22 03:11:13;;;;;;;3.03;2.40;;;;;;;;;;4986156;28;20215;-39
2023/03/22 03:13:41;;;;;;;2.83;2.57;;;;;;;;;;4988932;28;20535;-37
2023/03/22 03:16:16;;;;;;;5.77;2.33;;;;;;;;;;4984418;28;20215;-39
2023/03/22 03:18:47;;;;;;;4.30;2.43;;;;;;;;;;4990064;28;20219;-39
2023/03/22 03:21:21;;;;;;;4.03;2.90;;;;;;;;;;4990929;28;20223;-41
2023/03/22 03:23:51;;;;;;;5.33;2.50;;;;;;;;;;4979784;28;20592;-40
2023/03/22 03:26:21;;;;;;;2.50;2.27;;;;;;;;;;4988554;28;20218;-39
2023/03/22 03:28:52;;;;;;;4.10;2.33;;;;;;;;;;4987406;28;20211;-37
2023/03/22 03:31:24;;;;;;;2.80;2.47;;;;;;;;;;4986343;28;20258;-37
2023/03/22 03:33:54;;;;;;;3.53;2.60;;;;;;;;;;4982270;28;20254;-35
2023/03/22 03:36:22;;;;;;;3.17;2.53;;;;;;;;;;4991401;28;20203;-43
2023/03/22 03:38:51;;;;;;;2.90;2.20;;;;;;;;;;4976424;28;20209;-39
2023/03/22 03:41:20;;;;;;;2.90;2.57;;;;;;;;;;4991076;28;20302;-40
2023/03/22 03:43:48;;;;;;;5.73;2.57;;;;;;;;;;4992006;28;20219;-43
2023/03/22 03:46:16;;;;;;;3.60;2.37;;;;;;;;;;4991339;28;20212;-39
2023/03/22 03:48:46;;;;;;;6.37;2.77;;;;;;;;;;4994024;28;20428;-36
2023/03/22 03:51:13;;;;;;;3.97;2.30;;;;;;;;;;4994534;28;20227;-39
2023/03/22 03:53:40;;;;;;;3.77;2.63;;;;;;;;;;4984201;28;20232;-37
2023/03/22 03:56:08;;;;;;;3.33;3.00;;;;;;;;;;4992637;28;20208;-41
2023/03/22 03:58:35;;;;;;;4.50;2.90;;;;;;;;;;4994359;28;20200;-39
2023/03/22 04:01:03;;;;;;;3.27;2.97;;;;;;;;;;4978871;28;20235;-36
2023/03/22 04:03:32;;;;;;;6.43;2.90;;;;;;;;;;4990566;28;20208;-40
2023/03/22 04:05:59;;;;;;;5.07;2.70;;;;;;;;;;4994246;28;20223;-40
2023/03/22 04:08:27;;;;;;;4.20;2.53;;;;;;;;;;4989067;28;20259;-39
2023/03/22 04:10:54;;;;;;;3.13;2.70;;;;;;;;;;4986263;28;20665;-34
2023/03/22 04:13:23;;;;;;;3.40;2.50;;;;;;;;;;4993887;28;20204;-37
2023/03/22 04:15:53;;;;;;;4.70;2.47;;;;;;;;;;4985086;28;20644;-39
2023/03/22 04:18:20;;;;;;;3.50;2.60;;;;;;;;;;4993126;28;20223;-42
2023/03/22 04:20:52;;;;;;;2.67;2.47;;;;;;;;;;4994230;28;20231;-37
2023/03/22 04:23:21;;;;;;;2.50;2.30;;;;;;;;;;4988354;28;20243;-36
2023/03/22 04:25:49;;;;;;;3.00;2.57;;;;;;;;;;4991958;28;20270;-38
2023/03/22 04:28:16;;;;;;;2.97;2.77;;;;;;;;;;4993517;28;20235;-36
2023/03/22 04:30:44;;;;;;;3.10;2.33;;;;;;;;;;4985538;28;20219;-40
2023/03/22 04:33:12;;;;;;;3.83;2.63;;;;;;;;;;4992573;28;20208;-37
2023/03/22 04:35:39;;;;;;;2.93;2.57;;;;;;;;;;4992920;28;20845;-45
2023/03/22 04:38:08;;;;;;;3.10;2.80;;;;;;;;;;4980526;28;20231;-40
2023/03/22 04:40:37;;;;;;;2.33;2.13;;;;;;;;;;4984231;28;20291;-40
2023/03/22 04:43:05;;;;;;;2.30;2.10;;;;;;;;;;4992952;28;20786;-41
2023/03/22 04:45:33;;;;;;;3.43;2.10;;;;;;;;;;4985291;28;20500;-37
2023/03/22 04:48:00;;;;;;;2.50;2.30;;;;;;;;;;4991908;28;20728;-43
2023/03/22 04:50:28;;;;;;;4.50;2.70;;;;;;;;;;4992823;28;20231;-39
2023/03/22 04:52:57;;;;;;;3.60;2.93;;;;;;;;;;4988033;28;20200;-41
2023/03/22 04:55:26;;;;;;;2.63;2.43;;;;;;;;;;4989209;28;20208;-34
2023/03/22 04:57:54;;;;;;;4.60;3.20;;;;;;;;;;4992996;28;20686;-40
2023/03/22 05:00:22;;;;;;;3.63;2.30;;;;;;;;;;4981689;28;20304;-40
2023/03/22 05:02:49;;;;;;;3.20;2.57;;;;;;;;;;4984013;28;20303;-39
2023/03/22 05:05:16;;;;;;;2.63;2.43;;;;;;;;;;4992964;28;20215;-39
2023/03/22 05:07:43;;;;;;;2.83;2.53;;;;;;;;;;4993139;28;20238;-42
2023/03/22 05:10:11;;;;;;;5.10;2.53;;;;;;;;;;4982407;28;20247;-40
2023/03/22 05:12:39;;;;;;;6.47;2.80;;;;;;;;;;4982967;28;20271;-43
2023/03/22 05:15:07;;;;;;;4.10;2.43;;;;;;;;;;4987891;28;20208;-40
2023/03/22 05:17:34;;;;;;;3.87;2.63;;;;;;;;;;4986616;28;20220;-39
2023/03/22 05:20:08;;;;;;;3.00;2.20;;;;;;;;;;4992422;28;20196;-39
2023/03/22 05:22:36;;;;;;;3.37;2.67;;;;;;;;;;4990592;28;20228;-39
2023/03/22 05:25:04;;;;;;;3.03;2.67;;;;;;;;;;4974826;28;20268;-37
2023/03/22 05:27:33;;;;;;;2.60;2.20;;;;;;;;;;4989963;28;20219;-39
2023/03/22 05:30:02;;;;;;;2.70;2.50;;;;;;;;;;4981616;28;20702;-39
2023/03/22 05:32:29;;;;;;;2.70;2.50;;;;;;;;;;4990963;28;20215;-34
2023/03/22 05:34:56;;;;;;;2.97;2.60;;;;;;;;;;4994819;28;20208;-36
2023/03/22 05:37:24;;;;;;;3.47;2.57;;;;;;;;;;4986779;28;20235;-40
2023/03/22 05:39:51;;;;;;;2.87;2.50;;;;;;;;;;4980073;28;20243;-36
2023/03/22 05:42:18;;;;;;;3.97;2.50;;;;;;;;;;4994810;28;20235;-41
2023/03/22 05:44:45;;;;;;;4.33;2.43;;;;;;;;;;4988553;28;20200;-42
2023/03/22 05:47:13;;;;;;;3.00;2.50;;;;;;;;;;4984064;28;20228;-42
2023/03/22 05:49:41;;;;;;;2.60;2.30;;;;;;;;;;4991381;28;20436;-38
2023/03/22 05:52:08;;;;;;;3.10;2.80;;;;;;;;;;4983119;28;20204;-37
2023/03/22 05:54:35;;;;;;;4.77;3.00;;;;;;;;;;4991558;28;20203;-37
2023/03/22 05:57:02;;;;;;;5.87;3.33;;;;;;;;;;4990357;28;20232;-40
2023/03/22 05:59:29;;;;;;;4.37;2.53;;;;;;;;;;4986149;28;20875;-37
2023/03/22 06:01:56;;;;;;;4.07;2.70;;;;;;;;;;4992118;28;20224;-37
2023/03/22 06:04:25;;;;;;;2.93;2.60;;;;;;;;;;4991307;28;20206;-40
2023/03/22 06:06:53;;;;;;;2.73;2.50;;;;;;;;;;4993577;28;20223;-41
2023/03/22 06:09:20;;;;;;;4.97;3.43;;;;;;;;;;4984738;28;20263;-39
2023/03/22 06:11:47;;;;;;;6.57;3.40;;;;;;;;;;4992248;28;20208;-39
2023/03/22 06:14:14;;;;;;;5.27;3.50;;;;;;;;;;4989726;28;20221;-43
2023/03/22 06:16:41;;;;;;;4.00;3.70;;;;;;;;;;4982004;28;20314;-39
2023/03/22 06:19:09;;;;;;;3.60;3.20;;;;;;;;;;4994369;28;20562;-37
2023/03/22 06:21:37;;;;;;;4.37;3.10;;;;;;;;;;4994505;28;20211;-37
2023/03/22 06:24:04;;;;;;;4.53;3.10;;;;;;;;;;4985134;28;20296;-37
2023/03/22 06:26:32;;;;;;;4.33;3.63;;;;;;;;;;4984595;28;20519;-38
2023/03/22 06:28:59;;;;;;;4.10;3.70;;;;;;;;;;4989104;28;20208;-37
2023/03/22 06:31:26;;;;;;;6.33;3.40;;;;;;;;;;4981522;28;20217;-39
2023/03/22 06:33:53;;;;;;;3.97;3.47;;;;;;;;;;4993358;28;20278;-41
2023/03/22 06:36:20;;;;;;;7.00;3.43;;;;;;;;;;4993475;28;20208;-36
2023/03/22 06:38:49;;;;;;;3.80;3.30;;;;;;;;;;4990690;28;20643;-41
2023/03/22 06:41:16;;;;;;;4.33;3.20;;;;;;;;;;4988493;28;20219;-40
2023/03/22 06:43:43;;;;;;;7.70;3.43;;;;;;;;;;4990100;28;20228;-37
2023/03/22 06:46:10;;;;;;;4.57;3.73;;;;;;;;;;4987085;28;20208;-42
2023/03/22 06:48:37;;;;;;;4.63;3.03;;;;;;;;;;4990990;28;20218;-35
2023/03/22 06:51:04;;;;;;;3.60;3.27;;;;;;;;;;4993697;28;20208;-36
2023/03/22 06:53:31;;;;;;;5.37;3.93;;;;;;;;;;4989292;28;20624;-42
2023/03/22 06:56:00;;;;;;;7.83;3.60;;;;;;;;;;4992109;28;20219;-38
2023/03/22 06:58:27;;;;;;;4.57;4.17;;;;;;;;;;4993656;28;20223;-39
2023/03/22 07:00:57;;;;;;;6.90;3.70;;;;;;;;;;4981191;28;20200;-38
2023/03/22 07:03:24;;;;;;;4.57;3.83;;;;;;;;;;4989512;28;20219;-41
2023/03/22 07:05:51;;;;;;;5.10;3.87;;;;;;;;;;4993568;28;20207;-35
2023/03/22 07:08:19;;;;;;;4.17;3.40;;;;;;;;;;4990868;28;20232;-36
2023/03/22 07:10:49;;;;;;;4.67;4.23;;;;;;;;;;4988091;28;20215;-43
2023/03/22 07:13:17;;;;;;;4.07;3.50;;;;;;;;;;4992973;28;20195;-36
2023/03/22 07:15:44;;;;;;;4.70;3.37;;;;;;;;;;4981180;28;20212;-42
2023/03/22 07:18:12;;;;;;;4.57;3.10;;;;;;;;;;4987842;28;20239;-41
2023/03/22 07:20:40;;;;;;;5.57;3.90;;;;;;;;;;4992987;28;20200;-36
2023/03/22 07:23:09;;;;;;;4.77;3.73;;;;;;;;;;4989069;28;20227;-36
2023/03/22 07:25:36;;;;;;;6.57;3.37;;;;;;;;;;4986889;28;20262;-35
2023/03/22 07:28:03;;;;;;;8.70;5.03;;;;;;;;;;4993160;28;20239;-36
2023/03/22 07:30:34;;;;;;;4.40;3.70;;;;;;;;;;4980505;28;20213;-43
2023/03/22 07:33:01;;;;;;;4.13;3.43;;;;;;;;;;4987256;28;20251;-41
2023/03/22 07:35:29;;;;;;;4.60;3.53;;;;;;;;;;4992633;28;20207;-41
2023/03/22 07:37:56;;;;;;;5.93;3.93;;;;;;;;;;4982390;28;20231;-37
2023/03/22 07:40:23;;;;;;;4.00;3.60;;;;;;;;;;4991727;28;20230;-39
2023/03/22 07:42:50;;;;;;;4.93;3.40;;;;;;;;;;4973539;28;20224;-39
2023/03/22 07:45:18;;;;;;;6.73;3.97;;;;;;;;;;4977461;28;20220;-42
2023/03/22 07:47:46;;;;;;;5.10;3.73;;;;;;;;;;4986772;28;20216;-39
2023/03/22 07:50:15;;;;;;;4.10;3.67;;;;;;;;;;4981279;28;20303;-38
2023/03/22 07:52:43;;;;;;;8.20;3.50;;;;;;;;;;4972561;28;20294;-42
2023/03/22 07:55:11;;;;;;;5.00;3.73;;;;;;;;;;4965134;28;20215;-36
2023/03/22 07:57:39;;;;;;;3.63;2.90;;;;;;;;;;4966268;28;20231;-37
2023/03/22 08:00:09;;;;;;;3.67;2.87;;;;;;;;;;4971375;28;20216;-35
2023/03/22 08:02:37;;;;;;;3.73;2.90;;;;;;;;;;4979932;28;20223;-37
2023/03/22 08:05:07;;;;;;;4.70;3.37;;;;;;;;;;4968900;28;20224;-36
2023/03/22 08:07:34;;;;;;;3.43;2.87;;;;;;;;;;4981957;28;20220;-37
2023/03/22 08:10:01;;;;;;;4.67;3.10;;;;;;;;;;4988428;28;20237;-41
2023/03/22 08:12:28;;;;;;;3.93;3.20;;;;;;;;;;4989287;28;20215;-37
2023/03/22 08:14:56;;;;;;;5.03;3.33;;;;;;;;;;4983547;28;20287;-41
2023/03/22 08:17:24;;;;;;;3.57;2.93;;;;;;;;;;4984247;28;20226;-41
2023/03/22 08:19:53;;;;;;;3.80;3.23;;;;;;;;;;4989665;28;20299;-38
2023/03/22 08:22:24;;;;;;;3.70;3.30;;;;;;;;;;4985077;28;20228;-39
2023/03/22 08:24:51;;;;;;;5.13;3.60;;;;;;;;;;4982085;28;20275;-40
2023/03/22 08:27:19;;;;;;;3.97;3.20;;;;;;;;;;4985934;28;20220;-40
2023/03/22 08:29:47;;;;;;;4.87;3.30;;;;;;;;;;4987711;28;20216;-35
2023/03/22 08:32:15;;;;;;;4.00;3.10;;;;;;;;;;4992043;28;20201;-39
2023/03/22 08:34:42;;;;;;;5.10;3.27;;;;;;;;;;4992026;28;20732;-36
2023/03/22 08:37:11;;;;;;;6.10;3.13;;;;;;;;;;4992343;28;20224;-38
2023/03/22 08:39:40;;;;;;;3.77;3.03;;;;;;;;;;4988958;28;20552;-41
2023/03/22 08:42:07;;;;;;;6.13;3.30;;;;;;;;;;4992372;28;20421;-39
2023/03/22 08:44:35;;;;;;;3.17;2.87;;;;;;;;;;4985487;28;20201;-42
2023/03/22 08:47:08;;;;;;;4.80;3.27;;;;;;;;;;4991896;28;20287;-40
2023/03/22 08:49:36;;;;;;;4.27;2.97;;;;;;;;;;4992623;28;20196;-39
2023/03/22 08:52:06;;;;;;;5.13;3.00;;;;;;;;;;4990059;28;20206;-40
2023/03/22 08:54:33;;;;;;;3.10;2.80;;;;;;;;;;4985794;28;20240;-36
2023/03/22 08:57:02;;;;;;;2.93;2.30;;;;;;;;;;4993164;28;20222;-42
2023/03/22 08:59:30;;;;;;;3.87;2.40;;;;;;;;;;4987150;28;20819;-35
2023/03/22 09:01:57;;;;;;;2.27;1.40;;;;;;;;;;4985814;28;20235;-41
2023/03/22 09:04:25;;;;;;;3.10;1.37;;;;;;;;;;4991607;28;20690;-39
2023/03/22 09:06:52;;;;;;;1.20;1.10;;;;;;;;;;4992110;28;20233;-38
2023/03/22 09:09:19;;;;;;;2.20;1.17;;;;;;;;;;4983051;28;20208;-43
2023/03/22 09:11:46;;;;;;;1.30;1.20;;;;;;;;;;4991892;28;20200;-39
2023/03/22 09:14:14;;;;;;;0.93;0.93;;;;;;;;;;4985790;28;20213;-37
2023/03/22 09:16:42;;;;;;;1.70;1.00;;;;;;;;;;4986480;28;20223;-41
2023/03/22 09:19:09;;;;;;;1.23;0.80;;;;;;;;;;4992372;28;20204;-40
2023/03/22 09:21:36;;;;;;;1.60;0.90;;;;;;;;;;4988733;28;20196;-43
2023/03/22 09:24:03;;;;;;;1.10;1.10;;;;;;;;;;4982659;28;20217;-40
2023/03/22 09:26:30;;;;;;;0.80;0.80;;;;;;;;;;4992072;28;20223;-44
2023/03/22 09:29:00;;;;;;;1.37;1.10;;;;;;;;;;4989428;28;20240;-38
2023/03/22 09:31:28;;;;;;;2.17;0.90;;;;;;;;;;4990423;28;20488;-41
2023/03/22 09:33:55;;;;;;;1.30;1.00;;;;;;;;;;4991292;28;20204;-41
2023/03/22 09:36:23;;;;;;;1.00;0.97;;;;;;;;;;4991942;28;20215;-41
2023/03/22 09:38:50;;;;;;;0.80;0.80;;;;;;;;;;4988989;28;20211;-40
2023/03/22 09:41:19;;;;;;;0.80;0.80;;;;;;;;;;4987631;28;20204;-46
2023/03/22 09:43:49;;;;;;;0.93;0.80;;;;;;;;;;4989396;28;20227;-40
2023/03/22 09:46:18;;;;;;;1.20;0.80;;;;;;;;;;4979623;28;20204;-37
2023/03/22 09:48:47;;;;;;;1.97;0.80;;;;;;;;;;4990906;28;20200;-40
2023/03/22 09:51:20;;;;;;;0.90;0.90;;;;;;;;;;4983454;28;20235;-43
2023/03/22 09:53:47;;;;;;;2.43;0.70;;;;;;;;;;4986753;28;20211;-34
2023/03/22 09:56:15;;;;;;;2.43;1.07;;;;;;;;;;4991131;28;20214;-33
2023/03/22 09:58:46;;;;;;;1.67;0.80;;;;;;;;;;4989300;28;20258;-39
2023/03/22 10:01:16;;;;;;;0.80;0.80;;;;;;;;;;4987292;28;20219;-42
2023/03/22 10:04:06;;;;;;;1.17;0.50;;;;;;;;;;4988389;28;20230;-39
2023/03/22 10:06:34;;;;;;;0.63;0.60;;;;;;;;;;4987410;28;20243;-40
2023/03/22 10:09:06;;;;;;;1.10;1.00;;;;;;;;;;4981943;28;20210;-38
2023/03/22 10:11:39;;;;;;;1.07;0.60;;;;;;;;;;4989574;28;20287;-37
2023/03/22 10:14:15;;;;;;;1.93;0.60;;;;;;;;;;4984905;28;20202;-35
2023/03/22 10:16:44;;;;;;;0.80;0.80;;;;;;;;;;4985900;28;20368;-35
2023/03/22 10:19:17;;;;;;;0.80;0.80;;;;;;;;;;4986946;28;20222;-40
2023/03/22 10:21:44;;;;;;;1.00;0.93;;;;;;;;;;4986057;28;20206;-36
2023/03/22 10:24:15;;;;;;;0.73;0.73;;;;;;;;;;4983551;28;20225;-35
2023/03/22 10:26:45;;;;;;;1.70;0.90;;;;;;;;;;4989499;28;20235;-36
2023/03/22 10:29:14;;;;;;;1.27;0.63;;;;;;;;;;4984992;28;20214;-41
2023/03/22 10:31:43;;;;;;;1.17;1.07;;;;;;;;;;4984335;28;20687;-39
2023/03/22 10:34:15;;;;;;;2.20;0.80;;;;;;;;;;4984931;28;20231;-35
2023/03/22 10:49:37;;;;;;;0.93;0.90;;;;;;;;;;4989112;28;20216;-30
2023/03/22 10:52:05;;;;;;;0.80;0.80;;;;;;;;;;4987389;28;20235;-33
2023/03/22 10:54:32;;;;;;;1.10;0.90;;;;;;;;;;4983233;28;20215;-32
2023/03/22 10:56:59;;;;;;;0.90;0.90;;;;;;;;;;4983418;28;20291;-29
2023/03/22 10:59:42;;;;;;;0.70;0.70;;;;;;;;;;4986637;28;20212;-32
2023/03/22 11:02:17;;;;;;;1.37;0.67;;;;;;;;;;4981334;28;20216;-33
2023/03/22 11:04:48;;;;;;;1.17;0.73;;;;;;;;;;4990899;28;20233;-31
2023/03/22 11:07:26;;;;;;;0.80;0.63;;;;;;;;;;4988515;28;20229;-30
2023/03/22 11:09:58;;;;;;;1.37;0.70;;;;;;;;;;4983667;28;20672;-31
2023/03/22 11:12:25;;;;;;;0.80;0.80;;;;;;;;;;4990206;28;20204;-31
2023/03/22 11:14:53;;;;;;;1.13;0.57;;;;;;;;;;4983367;28;20199;-31
2023/03/22 11:17:22;;;;;;;1.80;0.50;;;;;;;;;;4988311;28;20224;-32
2023/03/22 11:19:53;;;;;;;0.63;0.63;;;;;;;;;;4989897;28;20635;-31
2023/03/22 11:22:25;;;;;;;1.03;1.00;;;;;;;;;;4990638;28;20348;-30
2023/03/22 11:24:52;;;;;;;0.70;0.60;;;;;;;;;;4978307;28;20219;-30
2023/03/22 11:27:21;;;;;;;0.50;0.50;;;;;;;;;;4985231;28;20231;-29
2023/03/22 11:29:49;;;;;;;1.43;0.60;;;;;;;;;;4987484;28;20215;-32
2023/03/22 11:32:26;;;;;;;0.53;0.47;;;;;;;;;;4984655;28;20200;-32
2023/03/22 11:35:01;;;;;;;0.80;0.50;;;;;;;;;;4981921;28;20658;-30
2023/03/22 11:37:28;;;;;;;0.60;0.60;;;;;;;;;;4990347;28;20689;-33
2023/03/22 11:40:03;;;;;;;1.77;0.73;;;;;;;;;;4986204;28;20231;-30
2023/03/22 11:42:34;;;;;;;0.73;0.73;;;;;;;;;;4981612;28;20203;-32
2023/03/22 11:45:01;;;;;;;0.97;0.60;;;;;;;;;;4981299;28;20220;-32
2023/03/22 11:47:31;;;;;;;0.50;0.50;;;;;;;;;;4982099;28;20243;-30
2023/03/22 11:49:58;;;;;;;1.23;0.70;;;;;;;;;;4989807;28;20223;-31
2023/03/22 11:52:28;;;;;;;4.17;0.70;;;;;;;;;;4990087;28;20846;-30
2023/03/22 11:54:56;;;;;;;0.63;0.60;;;;;;;;;;4978785;28;20208;-31
2023/03/22 11:57:25;;;;;;;0.50;0.47;;;;;;;;;;4986443;28;20793;-31
2023/03/22 11:59:55;;;;;;;0.60;0.60;;;;;;;;;;4982545;28;20207;-28
2023/03/22 12:02:24;;;;;;;0.97;0.70;;;;;;;;;;4985424;28;20231;-32
2023/03/22 12:04:56;;;;;;;0.57;0.57;;;;;;;;;;4991345;28;20705;-30
2023/03/22 12:07:23;;;;;;;1.17;0.50;;;;;;;;;;4989648;28;20653;-32
2023/03/22 12:09:55;;;;;;;1.30;0.50;;;;;;;;;;4984696;28;20204;-34
2023/03/22 12:12:25;;;;;;;0.60;0.60;;;;;;;;;;4993229;28;20196;-32
2023/03/22 12:17:24;;;;;;;0.60;0.60;;;;;;;;;;5010332;28;20253;-36
2023/03/22 12:19:54;;;;;;;0.50;0.50;;;;;;;;;;5014317;28;20200;-35
2023/03/22 12:22:22;;;;;;;1.93;0.67;;;;;;;;;;5011455;28;20539;-35
2023/03/22 12:24:49;;;;;;;1.43;0.60;;;;;;;;;;5002946;28;20272;-32
2023/03/22 12:27:19;;;;;;;0.57;0.50;;;;;;;;;;5002897;28;20223;-37
2023/03/22 12:29:48;;;;;;;0.43;0.43;;;;;;;;;;5008974;28;20222;-36
2023/03/22 12:32:18;;;;;;;0.97;0.60;;;;;;;;;;5001057;28;20219;-32
2023/03/22 12:34:47;;;;;;;2.47;0.60;;;;;;;;;;4996123;28;20218;-34
2023/03/22 12:37:16;;;;;;;1.33;0.47;;;;;;;;;;4996600;28;20231;-32
2023/03/22 12:39:47;;;;;;;0.40;0.40;;;;;;;;;;4994974;28;20212;-37
2023/03/22 12:42:21;;;;;;;0.57;0.57;;;;;;;;;;5012770;28;20207;-41
2023/03/22 12:44:49;;;;;;;0.50;0.50;;;;;;;;;;4997173;28;20307;-36
2023/03/22 12:47:19;;;;;;;0.50;0.50;;;;;;;;;;5006753;28;20231;-31
2023/03/22 12:49:50;;;;;;;0.60;0.60;;;;;;;;;;5004574;28;20578;-36
2023/03/22 12:52:20;;;;;;;0.40;0.40;;;;;;;;;;5008666;28;20211;-35
2023/03/22 12:54:48;;;;;;;0.40;0.40;;;;;;;;;;5004801;28;20244;-37
2023/03/22 12:57:15;;;;;;;0.50;0.40;;;;;;;;;;5008045;28;20234;-39
2023/03/22 12:59:45;;;;;;;0.50;0.50;;;;;;;;;;5005223;28;20227;-36
2023/03/22 13:02:16;;;;;;;0.70;0.70;;;;;;;;;;5000989;28;20676;-34
2023/03/22 13:04:50;;;;;;;0.87;0.60;;;;;;;;;;5011960;28;20688;-33
2023/03/22 13:07:31;;;;;;;0.43;0.43;;;;;;;;;;5009891;28;20243;-36
2023/03/22 13:09:58;;;;;;;1.87;0.60;;;;;;;;;;5000841;28;20203;-38
2023/03/22 13:12:30;;;;;;;0.53;0.53;;;;;;;;;;4995296;28;20211;-30
2023/03/22 13:15:01;;;;;;;0.40;0.40;;;;;;;;;;4995079;28;20813;-35
2023/03/22 13:17:42;;;;;;;0.73;0.50;;;;;;;;;;5004618;28;20258;-33
2023/03/22 13:20:29;;;;;;;0.70;0.40;;;;;;;;;;5006868;28;20261;-39
2023/03/22 13:23:09;;;;;;;0.50;0.50;;;;;;;;;;5004740;28;20196;-36
2023/03/22 13:25:38;;;;;;;0.63;0.63;;;;;;;;;;5002373;28;20226;-36
2023/03/22 13:28:20;;;;;;;0.50;0.50;;;;;;;;;;5011659;28;20246;-37
2023/03/22 13:30:51;;;;;;;0.60;0.60;;;;;;;;;;5005561;28;20299;-32
2023/03/22 13:33:21;;;;;;;0.53;0.53;;;;;;;;;;5011404;28;20209;-37
2023/03/22 13:35:49;;;;;;;0.60;0.50;;;;;;;;;;5012163;28;20206;-30
2023/03/22 13:38:21;;;;;;;1.33;0.50;;;;;;;;;;5007807;28;20267;-37
2023/03/22 13:40:51;;;;;;;0.40;0.40;;;;;;;;;;5007730;28;20223;-34
2023/03/22 13:43:26;;;;;;;0.93;0.50;;;;;;;;;;5003544;28;20203;-37
2023/03/22 13:46:18;;;;;;;0.50;0.50;;;;;;;;;;4999338;28;20223;-36
2023/03/22 13:49:00;;;;;;;0.97;0.60;;;;;;;;;;4988427;28;20287;-34
2023/03/22 13:51:31;;;;;;;1.30;0.60;;;;;;;;;;4989504;28;20207;-34
2023/03/22 13:54:02;;;;;;;0.50;0.50;;;;;;;;;;5006997;28;20210;-37
2023/03/22 13:56:33;;;;;;;0.77;0.47;;;;;;;;;;4992933;28;20228;-38
2023/03/22 13:59:02;;;;;;;2.07;0.50;;;;;;;;;;5005175;28;20211;-37
2023/03/22 14:01:33;;;;;;;0.67;0.67;;;;;;;;;;5003691;28;20208;-36
2023/03/22 14:04:02;;;;;;;0.50;0.50;;;;;;;;;;5002887;28;20219;-30
2023/03/22 14:06:32;;;;;;;0.90;0.70;;;;;;;;;;5011098;28;20239;-36
2023/03/22 14:09:03;;;;;;;0.50;0.50;;;;;;;;;;4998469;28;20212;-36
2023/03/22 14:11:33;;;;;;;0.87;0.60;;;;;;;;;;5000862;28;20207;-37
2023/03/22 14:14:03;;;;;;;0.70;0.70;;;;;;;;;;5007077;28;20208;-33
2023/03/22 14:16:39;;;;;;;0.50;0.50;;;;;;;;;;5002504;28;20322;-35
2023/03/22 14:19:07;;;;;;;0.60;0.60;;;;;;;;;;5005242;28;20207;-39
2023/03/22 14:21:38;;;;;;;2.53;0.50;;;;;;;;;;5011640;28;20299;-39
2023/03/22 14:24:06;;;;;;;0.90;0.90;;;;;;;;;;5007476;28;20215;-32
2023/03/22 14:26:36;;;;;;;1.43;0.50;;;;;;;;;;5000424;28;20239;-36
2023/03/22 14:29:08;;;;;;;0.53;0.53;;;;;;;;;;4990320;28;20196;-35
2023/03/22 14:31:35;;;;;;;0.63;0.63;;;;;;;;;;4996849;28;20212;-35
2023/03/22 14:34:04;;;;;;;0.40;0.40;;;;;;;;;;5004853;28;20202;-30
2023/03/22 14:36:35;;;;;;;0.50;0.50;;;;;;;;;;5009636;28;20235;-34
2023/03/22 14:39:07;;;;;;;1.03;0.40;;;;;;;;;;5003778;28;20200;-34
2023/03/22 14:41:35;;;;;;;0.37;0.37;;;;;;;;;;5009167;28;20215;-32
2023/03/22 14:44:02;;;;;;;0.40;0.40;;;;;;;;;;5005921;28;20210;-36
2023/03/22 14:46:33;;;;;;;0.43;0.43;;;;;;;;;;4995756;28;20232;-39
2023/03/22 14:49:02;;;;;;;0.50;0.50;;;;;;;;;;5005526;28;20192;-37
2023/03/22 14:51:31;;;;;;;0.93;0.60;;;;;;;;;;4991078;28;20223;-37
2023/03/22 14:53:58;;;;;;;0.37;0.37;;;;;;;;;;4990756;28;20204;-34
2023/03/22 14:56:29;;;;;;;0.60;0.60;;;;;;;;;;4990208;28;20200;-35
2023/03/22 14:58:58;;;;;;;0.50;0.50;;;;;;;;;;4996417;28;20208;-34
2023/03/22 15:01:26;;;;;;;0.60;0.60;;;;;;;;;;5003471;28;20213;-36
2023/03/22 15:03:56;;;;;;;0.53;0.53;;;;;;;;;;4998901;28;20200;-41
2023/03/22 15:06:24;;;;;;;0.60;0.60;;;;;;;;;;4991168;28;20224;-34
2023/03/22 15:08:51;;;;;;;2.67;0.70;;;;;;;;;;4991721;28;20211;-30
2023/03/22 15:11:18;;;;;;;0.60;0.60;;;;;;;;;;5005495;28;20210;-35
2023/03/22 15:13:50;;;;;;;1.03;0.70;;;;;;;;;;5002741;28;20199;-34